createdAt,value
2018-04-18T00:02:21.202Z,20.93
2018-04-18T00:04:47.300Z,16.87
2018-04-18T00:07:21.074Z,17.27
2018-04-18T00:09:47.089Z,17.73
2018-04-18T00:12:13.085Z,17.87
2018-04-18T00:14:39.137Z,15.90
2018-04-18T00:17:05.133Z,15.23
2018-04-18T00:19:31.108Z,15.73
2018-04-18T00:21:57.828Z,16.87
2018-04-18T00:24:23.816Z,14.77
2018-04-18T00:26:49.818Z,16.97
2018-04-18T00:29:15.838Z,16.00
2018-04-18T00:31:41.814Z,16.40
2018-04-18T00:34:08.570Z,19.13
2018-04-18T00:36:34.574Z,13.17
2018-04-18T00:39:01.376Z,16.57
2018-04-18T00:41:27.386Z,14.77
2018-04-18T00:43:53.407Z,12.37
2018-04-18T00:46:19.406Z,18.27
2018-04-18T00:48:45.386Z,16.97
2018-04-18T00:51:12.199Z,15.07
2018-04-18T00:53:38.224Z,14.53
2018-04-18T00:56:04.269Z,16.27
2018-04-18T00:58:31.016Z,13.13
2018-04-18T01:00:57.088Z,18.10
2018-04-18T01:03:23.088Z,13.30
2018-04-18T01:05:49.087Z,15.00
2018-04-18T01:08:15.139Z,17.67
2018-04-18T01:10:41.189Z,14.80
2018-04-18T01:13:07.205Z,17.47
2018-04-18T01:15:33.213Z,14.60
2018-04-18T01:17:59.190Z,20.67
2018-04-18T01:20:25.269Z,17.60
2018-04-18T01:22:51.253Z,16.50
2018-04-18T01:25:17.274Z,18.07
2018-04-18T01:27:43.290Z,20.47
2018-04-18T01:30:09.332Z,17.63
2018-04-18T01:32:35.311Z,19.07
2018-04-18T01:35:01.311Z,11.07
2018-04-18T01:37:28.041Z,15.00
2018-04-18T01:39:54.760Z,15.53
2018-04-18T01:42:20.749Z,15.67
2018-04-18T01:44:46.763Z,15.60
2018-04-18T01:47:12.712Z,17.53
2018-04-18T01:49:38.704Z,19.30
2018-04-18T01:52:04.763Z,17.53
2018-04-18T01:54:31.487Z,14.40
2018-04-18T01:56:57.487Z,13.00
2018-04-18T01:59:23.513Z,18.57
2018-04-18T02:01:49.499Z,16.40
2018-04-18T02:04:15.519Z,19.47
2018-04-18T02:06:41.541Z,17.80
2018-04-18T02:09:07.590Z,20.70
2018-04-18T02:11:33.614Z,15.37
2018-04-18T02:13:59.594Z,16.10
2018-04-18T02:16:25.614Z,17.20
2018-04-18T02:18:51.650Z,13.47
2018-04-18T02:21:17.633Z,14.60
2018-04-18T02:23:44.385Z,14.23
2018-04-18T02:26:10.406Z,18.77
2018-04-18T02:28:36.420Z,16.83
2018-04-18T02:31:02.602Z,17.83
2018-04-18T02:33:28.625Z,15.10
2018-04-18T02:35:54.621Z,22.87
2018-04-18T02:38:20.672Z,19.67
2018-04-18T02:40:47.473Z,22.87
2018-04-18T02:43:13.479Z,21.07
2018-04-18T02:45:39.477Z,15.80
2018-04-18T02:48:05.506Z,16.70
2018-04-18T02:50:31.553Z,18.37
2018-04-18T02:52:57.543Z,17.20
2018-04-18T02:55:23.531Z,20.10
2018-04-18T02:57:50.276Z,19.57
2018-04-18T03:00:17.855Z,18.50
2018-04-18T05:32:03.782Z,19.60
2018-04-18T05:34:30.492Z,20.43
2018-04-18T05:36:57.670Z,19.30
2018-04-18T05:39:24.488Z,16.47
2018-04-18T05:41:50.526Z,15.23
2018-04-18T05:44:17.286Z,19.93
2018-04-18T05:46:43.391Z,21.80
2018-04-18T05:49:10.240Z,22.17
2018-04-18T05:51:36.223Z,19.97
2018-04-18T05:54:02.284Z,16.93
2018-04-18T05:56:28.320Z,20.33
2018-04-18T05:58:54.360Z,16.77
2018-04-18T06:01:20.321Z,21.43
2018-04-18T06:03:47.026Z,18.00
2018-04-18T06:06:13.043Z,18.67
2018-04-18T06:08:39.018Z,16.70
2018-04-18T06:11:05.032Z,18.87
2018-04-18T06:13:31.037Z,23.40
2018-04-18T06:15:57.776Z,20.23
2018-04-18T06:18:24.491Z,17.53
2018-04-18T06:20:50.456Z,19.50
2018-04-18T06:23:16.418Z,20.17
2018-04-18T06:25:42.387Z,24.90
2018-04-18T06:28:08.404Z,20.10
2018-04-18T06:30:34.472Z,17.47
2018-04-18T06:33:00.437Z,20.90
2018-04-18T06:35:26.386Z,19.43
2018-04-18T06:37:52.366Z,20.47
2018-04-18T06:40:19.094Z,17.47
2018-04-18T06:42:45.810Z,18.13
2018-04-18T06:45:11.772Z,19.03
2018-04-18T06:47:37.748Z,19.87
2018-04-18T06:50:03.832Z,22.43
2018-04-18T06:52:29.809Z,19.57
2018-04-18T06:54:56.516Z,23.77
2018-04-18T06:57:22.482Z,19.70
2018-04-18T06:59:48.508Z,20.77
2018-04-18T07:02:14.486Z,18.27
2018-04-18T07:04:40.452Z,24.07
2018-04-18T07:07:06.447Z,19.97
2018-04-18T07:09:33.887Z,16.67
2018-04-18T07:12:00.615Z,17.87
2018-04-18T07:14:26.568Z,20.30
2018-04-18T07:16:52.538Z,17.57
2018-04-18T07:19:18.591Z,15.77
2018-04-18T07:21:45.301Z,18.97
2018-04-18T07:24:11.278Z,21.37
2018-04-18T07:26:37.259Z,21.40
2018-04-18T07:29:03.983Z,18.70
2018-04-18T07:31:30.671Z,17.77
2018-04-18T07:33:56.646Z,16.17
2018-04-18T07:36:23.353Z,20.47
2018-04-18T07:38:49.428Z,22.10
2018-04-18T07:41:15.435Z,20.53
2018-04-18T07:43:41.442Z,20.40
2018-04-18T07:46:08.155Z,18.20
2018-04-18T07:48:34.133Z,19.90
2018-04-18T07:51:00.148Z,20.70
2018-04-18T07:53:26.135Z,20.70
2018-04-18T07:55:52.847Z,22.33
2018-04-18T07:58:18.815Z,22.13
2018-04-18T08:00:44.849Z,20.27
2018-04-18T08:03:10.806Z,20.77
2018-04-18T08:05:36.779Z,19.20
2018-04-18T08:08:02.747Z,16.03
2018-04-18T08:10:29.253Z,17.67
2018-04-18T08:12:55.219Z,17.40
2018-04-18T08:15:21.955Z,15.50
2018-04-18T08:17:47.904Z,20.73
2018-04-18T08:20:13.898Z,25.57
2018-04-18T08:22:39.915Z,20.47
2018-04-18T08:25:06.612Z,19.37
2018-04-18T08:27:32.594Z,19.27
2018-04-18T08:29:58.600Z,19.13
2018-04-18T08:32:24.582Z,16.73
2018-04-18T08:34:50.540Z,15.90
2018-04-18T08:37:16.521Z,16.93
2018-04-18T08:42:39.947Z,16.70
2018-04-18T08:45:05.921Z,14.63
2018-04-18T08:47:31.946Z,16.80
2018-04-18T08:49:57.919Z,19.43
2018-04-18T08:52:23.876Z,21.47
2018-04-18T08:54:49.839Z,16.70
2018-04-18T08:57:15.906Z,16.27
2018-04-18T08:59:41.992Z,17.70
2018-04-18T09:02:08.050Z,15.90
2018-04-18T09:04:33.959Z,13.00
2018-04-18T09:06:59.924Z,14.93
2018-04-18T09:09:25.955Z,15.30
2018-04-18T09:11:51.976Z,11.60
2018-04-18T09:14:17.946Z,15.70
2018-04-18T09:16:43.887Z,12.97
2018-04-18T09:19:10.647Z,11.63
2018-04-18T09:21:37.370Z,10.57
2018-04-18T09:24:03.340Z,10.23
2018-04-18T09:26:29.331Z,7.73
2018-04-18T09:28:55.307Z,11.10
2018-04-18T09:31:22.026Z,9.90
2018-04-18T09:33:47.992Z,10.77
2018-04-18T09:36:13.987Z,9.27
2018-04-18T09:38:40.703Z,5.87
2018-04-18T09:41:06.782Z,9.00
2018-04-18T09:43:32.754Z,8.83
2018-04-18T09:45:59.500Z,7.83
2018-04-18T09:48:25.525Z,12.17
2018-04-18T09:50:51.572Z,10.53
2018-04-18T09:53:17.560Z,6.93
2018-04-18T09:55:44.264Z,7.53
2018-04-18T09:58:10.226Z,6.73
2018-04-18T10:00:42.350Z,10.23
2018-04-18T10:03:14.326Z,9.90
2018-04-18T10:05:41.031Z,11.00
2018-04-18T10:08:06.997Z,12.73
2018-04-18T10:10:33.058Z,9.00
2018-04-18T10:12:59.045Z,11.87
2018-04-18T10:15:25.033Z,11.53
2018-04-18T10:17:51.765Z,8.03
2018-04-18T10:20:18.562Z,7.43
2018-04-18T10:22:45.332Z,7.30
2018-04-18T10:25:12.818Z,12.10
2018-04-18T10:27:39.561Z,9.47
2018-04-18T10:30:05.592Z,12.63
2018-04-18T10:32:31.594Z,10.93
2018-04-18T10:34:57.577Z,12.40
2018-04-18T10:37:23.560Z,8.13
2018-04-18T10:39:50.583Z,9.30
2018-04-18T10:42:16.565Z,9.30
2018-04-18T10:44:42.562Z,10.70
2018-04-18T10:47:08.531Z,8.43
2018-04-18T10:49:34.561Z,7.27
2018-04-18T10:52:00.877Z,6.70
2018-04-18T10:54:30.632Z,8.70
2018-04-18T10:56:56.673Z,8.50
2018-04-18T10:59:22.684Z,6.23
2018-04-18T11:01:48.681Z,9.37
2018-04-18T11:04:14.682Z,9.40
2018-04-18T11:06:40.655Z,11.10
2018-04-18T11:09:06.737Z,8.07
2018-04-18T11:11:33.510Z,9.17
2018-04-18T11:13:59.585Z,7.67
2018-04-18T11:16:26.338Z,14.50
2018-04-18T11:18:52.348Z,9.47
2018-04-18T11:21:18.369Z,8.67
2018-04-18T11:23:44.352Z,6.57
2018-04-18T11:26:11.073Z,8.90
2018-04-18T11:28:37.794Z,10.97
2018-04-18T11:31:03.918Z,8.27
2018-04-18T11:33:29.923Z,9.63
2018-04-18T11:35:55.891Z,9.43
2018-04-18T11:38:21.847Z,11.00
2018-04-18T11:40:47.914Z,12.10
2018-04-18T11:43:14.690Z,7.97
2018-04-18T11:45:40.709Z,8.90
2018-04-18T11:48:06.672Z,7.13
2018-04-18T11:50:32.857Z,9.97
2018-04-18T11:52:58.858Z,8.10
2018-04-18T11:55:24.817Z,11.07
2018-04-18T11:57:54.604Z,11.27
2018-04-18T12:03:04.975Z,7.63
2018-04-18T12:05:30.975Z,8.97
2018-04-18T12:07:56.939Z,6.90
2018-04-18T12:17:34.642Z,11.27
2018-04-18T12:20:00.671Z,8.47
2018-04-18T12:22:26.632Z,8.73
2018-04-18T12:25:05.121Z,8.50
2018-04-18T12:27:33.135Z,7.90
2018-04-18T12:30:03.336Z,7.90
2018-04-18T12:32:33.209Z,11.60
2018-04-18T12:37:42.542Z,9.20
2018-04-18T12:40:08.538Z,8.33
2018-04-18T12:42:34.549Z,8.07
2018-04-18T12:45:00.543Z,6.27
2018-04-18T12:47:27.261Z,8.50
2018-04-18T12:49:53.340Z,11.50
2018-04-18T12:52:19.319Z,11.30
2018-04-18T12:54:46.155Z,7.07
2018-04-18T12:57:12.137Z,9.33
2018-04-18T12:59:38.149Z,9.50
2018-04-18T13:02:04.145Z,6.90
2018-04-18T13:04:30.160Z,8.57
2018-04-18T13:06:56.183Z,11.90
2018-04-18T13:09:22.230Z,7.53
2018-04-18T13:11:48.244Z,10.73
2018-04-18T13:14:14.255Z,7.77
2018-04-18T13:16:40.249Z,8.20
2018-04-18T13:21:24.982Z,8.67
2018-04-18T13:58:42.699Z,8.57
2018-04-18T14:01:10.383Z,10.15
2018-04-18T14:03:46.011Z,9.63
2018-04-18T14:06:14.208Z,9.30
2018-04-18T14:08:41.677Z,9.53
2018-04-18T14:11:09.212Z,9.80
2018-04-18T14:13:36.781Z,10.93
2018-04-18T14:16:04.447Z,12.33
2018-04-18T14:18:32.108Z,12.00
2018-04-18T14:20:59.757Z,11.17
2018-04-18T14:23:27.219Z,11.50
2018-04-18T14:25:54.902Z,10.70
2018-04-18T14:28:22.532Z,10.73
2018-04-18T14:30:50.072Z,9.43
2018-04-18T14:33:17.533Z,11.27
2018-04-18T14:35:44.984Z,13.37
2018-04-18T14:38:12.473Z,11.47
2018-04-18T14:40:40.848Z,12.73
2018-04-18T14:43:08.501Z,8.97
2018-04-18T14:45:36.047Z,9.70
2018-04-18T14:48:06.034Z,13.23
2018-04-18T14:50:34.544Z,6.67
2018-04-18T14:53:02.111Z,10.43
2018-04-18T14:55:30.084Z,15.17
2018-04-18T14:57:58.412Z,11.77
2018-04-18T15:00:27.675Z,10.90
2018-04-18T15:02:55.172Z,8.13
2018-04-18T15:05:23.187Z,15.05
2018-04-18T15:07:50.893Z,13.00
2018-04-18T15:10:18.590Z,11.73
2018-04-18T15:12:46.067Z,9.37
2018-04-18T15:15:13.616Z,11.33
2018-04-18T15:17:41.283Z,13.70
2018-04-18T15:20:08.946Z,12.13
2018-04-18T15:22:36.394Z,16.57
2018-04-18T15:25:03.846Z,16.03
2018-04-18T15:27:32.541Z,13.87
2018-04-18T15:30:00.770Z,11.07
2018-04-18T15:32:28.269Z,13.10
2018-04-18T15:34:55.938Z,13.47
2018-04-18T15:37:23.616Z,15.20
2018-04-18T15:39:51.066Z,16.50
2018-04-18T15:42:18.748Z,13.73
2018-04-18T15:44:46.220Z,17.80
2018-04-18T15:47:13.691Z,17.07
2018-04-18T15:49:41.328Z,19.47
2018-04-18T15:52:08.956Z,13.03
2018-04-18T15:54:36.628Z,13.97
2018-04-18T15:57:05.595Z,15.17
2018-04-18T15:59:33.247Z,13.30
2018-04-18T16:02:00.706Z,12.87
2018-04-18T16:04:28.168Z,11.57
2018-04-18T16:06:55.610Z,13.37
2018-04-18T16:09:23.242Z,12.43
2018-04-18T16:11:51.848Z,13.27
2018-04-18T16:14:19.338Z,14.47
2018-04-18T16:16:47.057Z,14.17
2018-04-18T16:19:14.685Z,16.70
2018-04-18T16:21:42.341Z,13.73
2018-04-18T16:24:09.819Z,12.60
2018-04-18T16:26:37.303Z,12.18
2018-04-18T16:29:16.753Z,16.83
2018-04-18T16:31:44.327Z,10.80
2018-04-18T16:34:12.568Z,18.23
2018-04-18T16:36:40.012Z,20.10
2018-04-18T16:39:07.611Z,17.53
2018-04-18T16:41:35.079Z,15.33
2018-04-18T16:44:02.542Z,18.30
2018-04-18T16:49:28.849Z,14.23
2018-04-18T16:51:56.500Z,14.80
2018-04-18T16:54:24.041Z,13.37
2018-04-18T16:56:51.646Z,12.10
2018-04-18T16:59:19.899Z,17.67
2018-04-18T17:01:47.462Z,15.67
2018-04-18T17:04:15.010Z,16.50
2018-04-18T17:06:42.609Z,14.27
2018-04-18T17:09:10.343Z,14.80
2018-04-18T17:11:37.837Z,15.77
2018-04-18T17:14:05.338Z,15.87
2018-04-18T17:16:32.910Z,17.08
2018-04-18T17:19:00.366Z,14.70
2018-04-18T17:21:27.911Z,16.37
2018-04-18T17:23:55.369Z,10.60
2018-04-18T17:26:22.818Z,14.85
2018-04-18T17:28:50.265Z,12.20
2018-04-18T17:31:18.751Z,15.27
2018-04-18T17:33:46.193Z,16.87
2018-04-18T17:36:13.986Z,19.00
2018-04-18T17:38:41.485Z,15.10
2018-04-18T17:41:09.939Z,10.63
2018-04-18T17:43:37.596Z,14.07
2018-04-18T17:46:05.056Z,18.30
2018-04-18T17:48:34.228Z,15.40
2018-04-18T17:51:02.247Z,13.07
2018-04-18T17:53:29.698Z,15.73
2018-04-18T17:56:00.033Z,16.10
2018-04-18T17:58:28.411Z,14.40
2018-04-18T18:00:56.782Z,14.73
2018-04-18T18:03:26.021Z,13.50
2018-04-18T18:05:53.792Z,14.13
2018-04-18T18:08:24.062Z,13.77
2018-04-18T18:10:51.658Z,12.77
2018-04-18T18:13:19.474Z,17.97
2018-04-18T18:15:48.139Z,10.57
2018-04-18T18:18:16.660Z,13.17
2018-04-18T18:20:44.871Z,12.43
2018-04-18T18:23:13.351Z,14.70
2018-04-18T18:25:40.978Z,11.67
2018-04-18T18:28:09.108Z,14.80
2018-04-18T18:30:36.615Z,18.03
2018-04-18T18:33:05.010Z,14.97
2018-04-18T18:35:32.463Z,15.00
2018-04-18T18:38:01.877Z,14.23
2018-04-18T18:40:30.383Z,11.60
2018-04-18T18:42:58.038Z,13.03
2018-04-18T18:45:25.526Z,13.33
2018-04-18T18:47:55.617Z,15.73
2018-04-18T18:50:24.159Z,14.53
2018-04-18T18:52:51.625Z,11.60
2018-04-18T18:55:19.195Z,8.67
2018-04-18T18:57:47.405Z,9.83
2018-04-18T19:00:15.035Z,11.30
2018-04-18T19:02:42.655Z,13.77
2018-04-18T19:05:11.070Z,12.07
2018-04-18T19:07:39.608Z,11.43
2018-04-18T19:10:09.687Z,12.12
2018-04-18T19:12:37.515Z,11.80
2018-04-18T19:15:05.498Z,11.37
2018-04-18T19:17:33.040Z,13.57
2018-04-18T19:20:01.258Z,15.13
2018-04-18T19:22:28.775Z,12.17
2018-04-18T19:24:56.326Z,10.97
2018-04-18T19:27:27.189Z,13.33
2018-04-18T19:29:54.679Z,12.33
2018-04-18T19:32:22.192Z,16.27
2018-04-18T19:34:50.165Z,14.00
2018-04-18T19:37:17.857Z,17.60
2018-04-18T19:39:45.507Z,14.83
2018-04-18T19:42:13.545Z,16.37
2018-04-18T19:44:42.326Z,16.80
2018-04-18T19:47:09.940Z,17.53
2018-04-18T19:49:37.583Z,14.13
2018-04-18T19:52:05.237Z,15.23
2018-04-18T19:54:32.790Z,17.47
2018-04-18T19:57:00.249Z,22.97
2018-04-18T19:59:28.824Z,15.63
2018-04-18T20:01:56.368Z,18.27
2018-04-18T20:04:23.838Z,18.07
2018-04-18T20:06:51.284Z,17.70
2018-04-18T20:09:18.898Z,20.73
2018-04-18T20:11:46.440Z,27.23
2018-04-18T20:14:13.978Z,23.13
2018-04-18T20:16:41.648Z,19.53
2018-04-18T20:19:09.323Z,21.83
2018-04-18T20:21:36.958Z,23.27
2018-04-18T20:24:04.478Z,20.70
2018-04-18T20:26:32.084Z,20.40
2018-04-18T20:28:59.658Z,17.70
2018-04-18T20:31:27.407Z,20.90
2018-04-18T20:33:55.071Z,21.07
2018-04-18T20:36:22.722Z,21.87
2018-04-18T20:38:50.271Z,23.13
2018-04-18T20:41:17.728Z,23.43
2018-04-18T20:43:45.202Z,19.23
2018-04-18T20:46:12.680Z,23.07
2018-04-18T20:48:41.023Z,21.97
2018-04-18T20:51:08.693Z,22.27
2018-04-18T20:53:36.225Z,25.20
2018-04-18T20:56:03.793Z,23.43
2018-04-18T20:58:31.236Z,22.20
2018-04-18T21:00:58.811Z,23.60
2018-04-18T21:03:26.271Z,25.93
2018-04-18T21:05:53.824Z,24.27
2018-04-18T21:08:21.495Z,27.37
2018-04-18T21:10:49.000Z,22.70
2018-04-18T21:13:16.420Z,27.40
2018-04-18T21:15:44.092Z,22.03
2018-04-18T21:18:11.550Z,26.57
2018-04-18T21:20:39.067Z,27.13
2018-04-18T21:23:06.502Z,25.57
2018-04-18T21:25:33.961Z,23.37
2018-04-18T21:28:01.415Z,20.93
2018-04-18T21:30:29.078Z,20.20
2018-04-18T21:32:56.535Z,24.57
2018-04-18T21:35:24.127Z,27.27
2018-04-18T21:37:51.805Z,27.73
2018-04-18T21:40:19.265Z,24.23
2018-04-18T21:42:46.708Z,26.50
2018-04-18T21:45:15.044Z,25.53
2018-04-18T21:47:42.633Z,24.53
2018-04-18T21:50:10.083Z,24.77
2018-04-18T21:52:37.655Z,22.00
2018-04-18T21:55:05.160Z,26.90
2018-04-18T21:57:32.564Z,24.70
2018-04-18T22:00:00.154Z,24.03
2018-04-18T22:02:27.643Z,24.77
2018-04-18T22:04:55.097Z,25.43
2018-04-18T22:07:22.546Z,25.10
2018-04-18T22:09:50.096Z,22.70
2018-04-18T22:12:17.596Z,27.27
2018-04-18T22:14:45.281Z,23.03
2018-04-18T22:17:12.732Z,24.57
2018-04-18T22:19:40.194Z,21.77
2018-04-18T22:22:07.713Z,24.57
2018-04-18T22:24:35.299Z,25.40
2018-04-18T22:27:04.251Z,22.57
2018-04-18T22:29:31.851Z,23.17
2018-04-18T22:31:59.503Z,35.80
2018-04-18T22:34:28.611Z,23.00
2018-04-18T22:36:56.071Z,24.13
2018-04-18T22:39:23.518Z,25.43
2018-04-18T22:41:51.175Z,25.77
2018-04-18T22:44:18.639Z,24.80
2018-04-18T22:46:46.227Z,28.00
2018-04-18T22:49:13.946Z,22.47
2018-04-18T22:51:43.052Z,28.27
2018-04-18T22:54:10.606Z,24.50
2018-04-18T22:56:38.062Z,24.73
2018-04-18T22:59:05.804Z,23.63
2018-04-18T23:01:34.055Z,25.37
2018-04-18T23:04:01.563Z,27.67
2018-04-18T23:06:29.045Z,28.27
2018-04-18T23:08:56.509Z,29.50
2018-04-18T23:11:24.042Z,21.90
2018-04-18T23:13:51.510Z,25.80
2018-04-18T23:16:19.727Z,23.20
2018-04-18T23:18:47.194Z,23.23
2018-04-18T23:21:14.818Z,25.13
2018-04-18T23:23:42.299Z,24.87
2018-04-18T23:26:09.892Z,28.37
2018-04-18T23:28:37.402Z,23.00
2018-04-18T23:31:05.003Z,25.10
2018-04-18T23:33:32.664Z,23.73
2018-04-18T23:36:00.319Z,24.13
2018-04-18T23:38:27.867Z,26.00
2018-04-18T23:40:55.528Z,25.93
2018-04-18T23:43:22.990Z,23.27
2018-04-18T23:45:50.563Z,27.47
2018-04-18T23:48:18.225Z,27.07
2018-04-18T23:50:45.855Z,29.27
2018-04-18T23:53:13.313Z,23.93
2018-04-18T23:55:40.848Z,27.00
2018-04-18T23:58:08.315Z,20.87
